createdAt,value
2023-04-02T07:37:47.191Z,14.43
2023-04-02T07:40:19.344Z,14.63
2023-04-02T07:42:47.066Z,16.17
2023-04-02T07:45:14.803Z,16.53
2023-04-02T07:47:42.491Z,15.00
2023-04-02T07:50:10.643Z,16.80
2023-04-02T07:52:44.502Z,15.23
2023-04-02T07:55:12.958Z,18.27
2023-04-02T07:57:49.418Z,16.60
2023-04-02T08:00:17.428Z,17.67
2023-04-02T08:02:44.828Z,14.30
2023-04-02T08:05:12.231Z,14.43
2023-04-02T08:07:39.771Z,14.87
2023-04-02T08:10:08.252Z,15.40
2023-04-02T08:12:36.088Z,12.50
2023-04-02T08:15:05.899Z,13.00
2023-04-02T08:17:33.763Z,13.83
2023-04-02T08:20:01.761Z,12.80
2023-04-02T08:22:29.827Z,14.80
2023-04-02T08:24:57.283Z,13.13
2023-04-02T08:27:25.082Z,13.60
2023-04-02T08:29:52.683Z,13.60
2023-04-02T08:32:20.047Z,13.50
2023-04-02T08:34:47.803Z,15.87
2023-04-02T08:37:15.147Z,14.83
2023-04-02T08:39:42.596Z,13.60
2023-04-02T08:42:23.432Z,13.77
2023-04-02T08:45:08.102Z,17.47
2023-04-02T08:47:41.902Z,15.47
2023-04-02T08:50:13.080Z,15.27
2023-04-02T08:52:40.442Z,16.70
2023-04-02T08:55:18.635Z,15.83
2023-04-02T08:57:50.397Z,15.10
2023-04-02T09:00:56.326Z,17.67
2023-04-02T09:03:32.009Z,15.17
2023-04-02T09:06:00.758Z,14.50
2023-04-02T09:08:28.794Z,13.17
2023-04-02T09:10:58.647Z,12.77
2023-04-02T09:13:27.911Z,11.77
2023-04-02T09:16:25.525Z,9.90
2023-04-02T09:18:54.556Z,10.30
2023-04-02T09:21:28.212Z,10.73
2023-04-02T09:23:56.036Z,9.57
2023-04-02T09:26:24.527Z,10.43
2023-04-02T09:28:53.411Z,9.60
2023-04-02T09:31:23.366Z,11.47
2023-04-02T09:33:51.732Z,11.17
2023-04-02T09:36:19.241Z,10.23
2023-04-02T09:38:58.682Z,11.67
2023-04-02T09:41:27.761Z,11.47
2023-04-02T09:44:27.475Z,11.13
2023-04-02T09:46:59.572Z,10.10
2023-04-02T09:49:28.923Z,8.50
2023-04-02T09:52:20.253Z,8.73
2023-04-02T09:55:08.267Z,8.97
2023-04-02T09:57:45.658Z,8.53
2023-04-02T10:03:02.673Z,6.10
2023-04-02T10:05:40.481Z,21.23
2023-04-02T10:08:10.446Z,9.93
2023-04-02T10:10:40.653Z,10.33
2023-04-02T10:13:09.981Z,8.00
2023-04-02T10:15:48.697Z,7.40
2023-04-02T10:18:22.352Z,7.30
2023-04-02T10:20:53.983Z,6.90
2023-04-02T10:23:25.429Z,6.57
2023-04-02T10:26:01.155Z,6.87
2023-04-02T10:28:28.488Z,7.10
2023-04-02T10:31:07.344Z,7.23
2023-04-02T10:33:38.158Z,7.27
2023-04-02T10:36:24.073Z,5.90
2023-04-02T10:38:55.398Z,6.57
2023-04-02T10:41:42.660Z,6.50
2023-04-02T10:44:20.597Z,7.40
2023-04-02T10:46:56.402Z,8.13
2023-04-02T10:49:28.929Z,7.13
2023-04-02T10:52:00.908Z,7.20
2023-04-02T10:54:36.638Z,7.37
2023-04-02T10:57:13.598Z,8.33
2023-04-02T10:59:44.331Z,8.87
2023-04-02T11:02:22.149Z,9.43
2023-04-02T11:04:50.883Z,11.33
2023-04-02T11:07:23.748Z,13.73
2023-04-02T11:09:52.967Z,16.93
2023-04-02T11:12:31.965Z,12.70
2023-04-02T11:14:59.943Z,10.43
2023-04-02T11:17:27.622Z,11.17
2023-04-02T11:19:56.633Z,11.97
2023-04-02T11:22:25.112Z,11.93
2023-04-02T11:24:54.526Z,13.20
2023-04-02T11:27:27.082Z,14.47
2023-04-02T11:30:17.301Z,15.53
2023-04-02T11:32:50.260Z,14.80
2023-04-02T11:35:26.285Z,15.67
2023-04-02T11:38:28.538Z,16.50
2023-04-02T11:40:56.509Z,14.57
2023-04-02T11:43:37.048Z,14.83
2023-04-02T11:46:04.495Z,14.23
2023-04-02T11:48:36.837Z,13.60
2023-04-02T11:51:24.289Z,12.77
2023-04-02T11:53:55.476Z,16.17
2023-04-02T11:56:24.254Z,14.47
2023-04-02T11:59:09.929Z,15.70
2023-04-02T12:01:59.764Z,16.10
2023-04-02T12:04:34.348Z,16.57
2023-04-02T12:07:26.887Z,14.13
2023-04-02T12:10:04.832Z,14.23
2023-04-02T12:12:38.398Z,16.03
2023-04-02T12:15:26.221Z,12.47
2023-04-02T12:17:53.763Z,14.23
2023-04-02T12:20:22.840Z,14.50
2023-04-02T12:22:54.193Z,14.20
2023-04-02T12:25:24.547Z,12.30
2023-04-02T12:28:17.962Z,11.90
2023-04-02T12:30:52.592Z,12.83
2023-04-02T12:33:30.718Z,12.50
2023-04-02T12:36:00.162Z,11.67
2023-04-02T12:38:29.074Z,13.63
2023-04-02T12:40:58.079Z,12.27
2023-04-02T12:43:26.253Z,11.77
2023-04-02T12:45:54.909Z,12.10
2023-04-02T15:35:27.574Z,11.00
2023-04-02T15:38:13.769Z,9.70
2023-04-02T15:40:46.950Z,9.90
2023-04-02T15:43:14.315Z,18.13
2023-04-02T15:45:49.721Z,10.73
2023-04-02T15:48:35.967Z,11.53
2023-04-02T15:51:26.487Z,10.73
2023-04-02T15:53:56.864Z,11.37
2023-04-02T15:56:40.098Z,11.67
2023-04-02T15:59:22.723Z,11.23
2023-04-02T16:01:50.004Z,11.33
2023-04-02T16:04:40.631Z,11.87
2023-04-02T16:07:40.367Z,10.80
2023-04-02T16:10:08.561Z,10.97
2023-04-02T16:12:37.697Z,10.30
2023-04-02T16:15:16.141Z,9.80
2023-04-02T16:17:47.109Z,9.73
2023-04-02T16:20:43.429Z,10.73
2023-04-02T16:23:14.965Z,9.17
2023-04-02T16:25:53.626Z,10.90
2023-04-02T16:28:39.541Z,11.23
2023-04-02T16:31:07.028Z,11.27
2023-04-02T16:33:34.371Z,11.97
2023-04-02T16:36:10.719Z,11.50
2023-04-02T16:38:46.732Z,11.80
2023-04-02T16:41:32.154Z,10.93
2023-04-02T16:44:02.947Z,9.83
2023-04-02T16:46:46.031Z,11.20
2023-04-02T16:49:21.097Z,10.20
2023-04-02T16:51:57.612Z,12.07
2023-04-02T16:54:35.388Z,12.90
2023-04-02T16:57:26.335Z,17.47
2023-04-02T16:59:53.732Z,12.03
2023-04-02T17:02:30.506Z,13.63
2023-04-02T17:05:13.445Z,10.50
2023-04-02T17:08:04.927Z,10.87
2023-04-02T17:10:38.741Z,13.33
2023-04-02T17:13:12.895Z,9.20
2023-04-02T17:15:41.531Z,9.57
2023-04-02T17:18:16.789Z,11.03
2023-04-02T17:20:48.109Z,9.20
2023-04-02T17:23:25.733Z,11.80
2023-04-02T17:26:02.741Z,14.00
2023-04-02T17:28:37.163Z,11.57
2023-04-02T17:31:06.656Z,10.50
2023-04-02T17:33:34.612Z,12.27
2023-04-02T17:36:10.903Z,16.57
2023-04-02T17:38:50.380Z,14.53
2023-04-02T17:41:17.705Z,11.97
2023-04-02T17:43:57.388Z,12.10
2023-04-02T17:46:24.946Z,14.37
2023-04-02T17:49:12.859Z,13.33
2023-04-02T17:51:42.215Z,11.47
2023-04-02T17:54:15.546Z,13.57
2023-04-02T17:57:01.659Z,16.87
2023-04-02T17:59:29.143Z,13.70
2023-04-02T18:01:59.276Z,15.37
2023-04-02T18:04:53.007Z,12.50
2023-04-02T18:07:20.533Z,12.23
2023-04-02T18:09:51.465Z,10.50
2023-04-02T18:12:25.786Z,12.43
2023-04-02T18:15:11.677Z,10.23
2023-04-02T18:17:39.073Z,9.47
2023-04-02T18:20:06.732Z,9.57
2023-04-02T18:22:45.573Z,10.87
2023-04-02T18:25:31.500Z,10.13
2023-04-02T18:28:17.390Z,9.93
2023-04-02T18:30:44.739Z,10.77
2023-04-02T18:33:24.157Z,11.63
2023-04-02T18:35:51.717Z,9.50
2023-04-02T18:38:21.974Z,7.70
2023-04-02T18:41:04.659Z,8.57
2023-04-02T18:43:35.058Z,8.67
2023-04-02T18:46:35.088Z,8.47
2023-04-02T18:49:02.541Z,8.27
2023-04-02T18:51:32.984Z,9.23
2023-04-02T18:54:11.930Z,27.70
2023-04-02T18:56:39.941Z,6.50
2023-04-02T18:59:07.223Z,10.43
2023-04-02T19:01:37.431Z,9.13
2023-04-02T19:04:06.834Z,8.60
2023-04-02T19:06:43.230Z,9.93
2023-04-02T19:09:22.502Z,12.63
2023-04-02T19:11:52.915Z,9.27
2023-04-02T19:14:21.356Z,9.07
2023-04-02T19:16:57.515Z,9.00
2023-04-02T19:19:27.115Z,11.20
2023-04-02T19:21:54.405Z,8.70
2023-04-02T19:24:41.405Z,10.10
2023-04-02T19:27:18.022Z,9.00
2023-04-02T19:29:48.480Z,9.10
2023-04-02T19:32:28.266Z,9.03
2023-04-02T19:34:55.594Z,9.00
2023-04-02T19:37:25.749Z,8.93
2023-04-02T19:39:53.562Z,10.00
2023-04-02T19:42:40.091Z,12.30
2023-04-02T19:45:16.477Z,10.00
2023-04-02T19:47:44.032Z,10.87
2023-04-02T19:50:11.708Z,12.13
2023-04-02T19:52:39.144Z,11.50
2023-04-02T19:55:06.642Z,11.70
2023-04-02T19:57:34.077Z,11.47
2023-04-02T20:00:01.478Z,13.17
2023-04-02T20:02:29.285Z,10.83
2023-04-02T20:04:56.670Z,12.03
2023-04-02T20:07:24.380Z,11.23
2023-04-02T20:09:51.722Z,13.30
2023-04-02T20:12:19.103Z,12.40
2023-04-02T20:14:46.444Z,13.77
2023-04-02T20:17:13.846Z,12.40
2023-04-02T20:19:41.328Z,12.53
2023-04-02T20:22:09.013Z,13.10
2023-04-02T20:24:36.475Z,12.53
2023-04-02T20:27:03.839Z,12.07
2023-04-02T20:29:32.212Z,12.40
2023-04-02T20:31:59.646Z,11.37
2023-04-02T20:34:27.416Z,10.73
2023-04-02T20:36:54.864Z,10.13
2023-04-02T20:39:22.343Z,8.77
2023-04-02T20:41:49.737Z,7.90
2023-04-02T20:44:17.454Z,7.03
2023-04-02T20:46:44.797Z,5.77
2023-04-02T20:49:12.239Z,5.60
2023-04-02T20:51:39.592Z,5.00
2023-04-02T20:54:06.982Z,4.83
2023-04-02T20:56:34.379Z,4.47
2023-04-02T20:59:01.870Z,4.53
2023-04-02T21:01:30.360Z,3.43
2023-04-02T21:03:59.040Z,4.67
2023-04-02T21:06:27.921Z,3.93
2023-04-02T21:08:55.410Z,3.70
2023-04-02T21:11:23.090Z,3.77
2023-04-02T21:13:50.853Z,3.77
2023-04-02T21:16:19.891Z,3.40
2023-04-02T21:18:48.115Z,3.83
2023-04-02T21:21:16.003Z,2.97
2023-04-02T21:23:44.021Z,4.80
2023-04-02T21:26:20.714Z,3.03
2023-04-02T21:28:48.222Z,3.53
2023-04-02T21:31:17.106Z,3.33
2023-04-02T21:33:46.342Z,2.40
2023-04-02T21:36:15.408Z,2.90
